Cookies

Aceptar Utilizamos cookies propias y de terceros para mejorar nuestros servicios y mostrarle publicidad relacionada con sus preferencias mediante el análisis de sus hábitos de navegación. Si continua navegando, consideramos que acepta su uso. Puede cambiar la configuración u obtener más información aqui.





Formato DD/MM/YYYY
Formato DD/MM/YYYY

IMPORTANTE: Los filtros deben estar dentro de un mismo rango de fechas para los cuales existen datos:

  • Rango 1: de 01/04/2018 a 18/12/2018.

Datos

Fecha Temperatura Raw(ºC) Conductividad(mS/cm) Salinidad(psu) Oxígeno Disuelto(%) Oxígeno Disuelto(mg/l) Turbidez(NTU) Clorofila(ug/l)
21/05/2018 00:00 15,48 55250,00 36,64 7,6 94,60 2,2 3,85
21/05/2018 04:00 15,15 55160,00 36,57 7,8 96,90 2,0 4,99
21/05/2018 08:00 15,29 55190,00 36,60 7,6 94,70 2,1 3,93
21/05/2018 12:00 15,13 55080,00 36,51 7,5 93,30 2,2 3,78
21/05/2018 16:00 15,21 55400,00 36,75 7,5 93,30 2,2 4,19
21/05/2018 20:00 15,67 55180,00 36,59 7,8 97,70 2,2 4,34
22/05/2018 00:00 15,49 55080,00 36,52 8,0 100,30 2,2 4,85
22/05/2018 04:00 15,49 55240,00 36,64 7,9 99,50 2,3 4,66
22/05/2018 08:00 15,61 55200,00 36,61 7,9 99,60 2,0 4,92
22/05/2018 12:00 15,71 55010,00 36,47 8,2 102,60 2,3 4,67
22/05/2018 16:00 15,78 54890,00 36,39 8,2 102,60 2,4 5,01
22/05/2018 20:00 16,43 55110,00 36,56 8,1 103,00 2,3 4,45
23/05/2018 00:00 16,22 55020,00 36,49 8,5 107,60 2,2 5,53
23/05/2018 04:00 15,89 55230,00 36,64 8,1 102,50 2,0 4,63
23/05/2018 08:00 15,88 54870,00 36,38 8,0 101,10 2,1 4,30
23/05/2018 12:00 16,33 54900,00 36,41 8,0 101,20 2,3 3,86
23/05/2018 16:00 16,49 54960,00 36,45 8,0 101,70 2,3 4,43
23/05/2018 20:00 16,77 54680,00 36,25 7,9 101,20 2,3 3,62
24/05/2018 00:00 16,65 55150,00 36,59 7,9 101,50 2,1 4,10
24/05/2018 04:00 16,55 55180,00 36,61 8,0 101,80 2,1 3,86
24/05/2018 08:00 17,05 55060,00 36,53 8,1 104,10 2,3 3,60
24/05/2018 12:00 17,55 55030,00 36,52 8,0 104,90 2,3 3,72
24/05/2018 16:00 16,93 54830,00 36,36 8,3 107,10 2,2 4,23
24/05/2018 20:00 16,76 55150,00 36,60 8,4 108,30 2,3 3,77
25/05/2018 00:00 16,91 54640,00 36,22 8,5 109,10 2,3 3,74
25/05/2018 04:00 17,04 54820,00 36,36 8,3 107,40 2,2 3,83
25/05/2018 08:00 17,50 54780,00 36,33 8,4 108,60 2,1 3,19
25/05/2018 12:00 17,57 54980,00 36,48 8,2 106,70 2,2 3,86
25/05/2018 16:00 17,88 55000,00 36,50 8,3 109,00 2,4 5,28
25/05/2018 20:00 17,69 55040,00 36,53 8,1 105,60 2,1 3,87
26/05/2018 00:00 17,64 54850,00 36,39 8,1 105,40 1,9 5,60
26/05/2018 04:00 17,34 54790,00 36,34 8,3 108,00 2,1 4,75
26/05/2018 08:00 17,97 54750,00 36,32 8,0 105,10 2,3 3,78
26/05/2018 12:00 18,58 54650,00 36,25 7,7 102,70 2,3 3,80
26/05/2018 16:00 18,51 54550,00 36,17 8,3 109,90 2,1 4,72
26/05/2018 20:00 18,52 54490,00 36,13 8,2 109,00 2,0 5,00
27/05/2018 00:00 18,43 54680,00 36,27 8,1 106,80 2,1 4,24
27/05/2018 04:00 18,10 54600,00 36,21 8,1 106,00 2,2 5,00
27/05/2018 08:00 17,97 54470,00 36,10 7,8 102,70 2,3 4,90
27/05/2018 12:00 18,88 54620,00 36,22 7,6 101,20 2,3 4,46
27/05/2018 16:00 18,33 54560,00 36,18 8,0 105,30 2,3 5,42
27/05/2018 20:00 17,98 54650,00 36,24 8,2 107,30 1,9 5,18
28/05/2018 00:00 15,13 55080,00 36,51 7,5 93,30 2,2 3,78
28/05/2018 04:00 15,21 55400,00 36,75 7,5 93,30 2,2 4,19
28/05/2018 08:00 15,67 55180,00 36,59 7,8 97,70 2,2 4,34
28/05/2018 12:00 15,49 55080,00 36,52 8,0 100,30 2,2 4,85
28/05/2018 16:00 15,49 55240,00 36,64 7,9 99,50 2,3 4,66
28/05/2018 20:00 15,61 55200,00 36,61 7,9 99,60 2,0 4,92
29/05/2018 00:00 15,71 55010,00 36,47 8,2 102,60 2,3 4,67
29/05/2018 04:00 15,78 54890,00 36,39 8,2 102,60 2,4 5,01
29/05/2018 08:00 16,43 55110,00 36,56 8,1 103,00 2,3 4,45
29/05/2018 12:00 16,22 55020,00 36,49 8,5 107,60 2,2 5,53
29/05/2018 16:00 15,89 55230,00 36,64 8,1 102,50 2,0 4,63
29/05/2018 20:00 15,88 54870,00 36,38 8,0 101,10 2,1 4,30
30/05/2018 00:00 16,33 54900,00 36,41 8,0 101,20 2,3 3,86
30/05/2018 04:00 16,49 54960,00 36,45 8,0 101,70 2,3 4,43
30/05/2018 08:00 16,77 54680,00 36,25 7,9 101,20 2,3 3,62
30/05/2018 12:00 16,68 54900,00 36,41 7,9 101,50 2,2 3,88
30/05/2018 16:00 16,60 54790,00 36,32 7,9 101,30 2,1 4,15
30/05/2018 20:00 16,43 54720,00 36,27 8,0 101,30 2,3 4,59
31/05/2018 00:00 16,08 55150,00 36,59 7,7 97,80 2,2 4,07
31/05/2018 04:00 16,40 55270,00 36,68 7,6 97,70 2,0 3,34
31/05/2018 08:00 17,30 55080,00 36,55 7,9 102,10 2,2 4,04
31/05/2018 12:00 16,71 55260,00 36,68 8,0 102,40 2,3 5,38
31/05/2018 16:00 16,25 55310,00 36,71 8,0 101,70 2,0 4,27
31/05/2018 20:00 16,65 55150,00 36,59 7,9 101,50 2,1 4,10
01/06/2018 00:00 16,55 55180,00 36,61 8,0 101,80 2,1 3,86
01/06/2018 04:00 17,05 55060,00 36,53 8,1 104,10 2,3 3,60
01/06/2018 08:00 17,55 55030,00 36,52 8,0 104,90 2,3 3,72
01/06/2018 12:00 16,93 54830,00 36,36 8,3 107,10 2,2 4,23
01/06/2018 16:00 16,76 55150,00 36,60 8,4 108,30 2,3 3,77
01/06/2018 20:00 16,91 54640,00 36,22 8,5 109,10 2,3 3,74
02/06/2018 00:00 17,04 54820,00 36,36 8,3 107,40 2,2 3,83
02/06/2018 04:00 17,50 54780,00 36,33 8,4 108,60 2,1 3,19
02/06/2018 08:00 17,57 54980,00 36,48 8,2 106,70 2,2 3,86
02/06/2018 12:00 17,88 55000,00 36,50 8,3 109,00 2,4 5,28
02/06/2018 16:00 17,69 55040,00 36,53 8,1 105,60 2,1 3,87
02/06/2018 20:00 17,64 54850,00 36,39 8,1 105,40 1,9 5,60
03/06/2018 00:00 17,34 54790,00 36,34 8,3 108,00 2,1 4,75
03/06/2018 04:00 17,97 54750,00 36,32 8,0 105,10 2,3 3,78
03/06/2018 08:00 18,58 54650,00 36,25 7,7 102,70 2,3 3,80
03/06/2018 12:00 18,51 54550,00 36,17 8,3 109,90 2,1 4,72
03/06/2018 16:00 18,52 54490,00 36,13 8,2 109,00 2,0 5,00
03/06/2018 20:00 18,43 54680,00 36,27 8,1 106,80 2,1 4,24
04/06/2018 00:00 18,10 54600,00 36,21 8,1 106,00 2,2 5,00
04/06/2018 04:00 17,97 54470,00 36,10 7,8 102,70 2,3 4,90
04/06/2018 08:00 18,88 54620,00 36,22 7,6 101,20 2,3 4,46
04/06/2018 12:00 18,33 54560,00 36,18 8,0 105,30 2,3 5,42
04/06/2018 16:00 17,98 54650,00 36,24 8,2 107,30 1,9 5,18
04/06/2018 20:00 17,86 54720,00 36,30 8,1 105,90 2,2 4,91
05/06/2018 00:00 17,57 54630,00 36,22 7,8 101,90 2,3 4,88
05/06/2018 04:00 18,58 54540,00 36,17 8,3 109,70 2,2 3,79
05/06/2018 08:00 18,47 54510,00 36,14 8,2 108,10 2,3 4,73
05/06/2018 12:00 18,25 54650,00 36,25 7,9 103,90 2,4 5,44
05/06/2018 16:00 17,32 54780,00 36,33 8,3 107,80 2,3 4,73
05/06/2018 20:00 17,31 54800,00 36,34 8,2 106,70 2,0 3,64
06/06/2018 00:00 17,10 54800,00 36,34 8,0 103,80 2,3 4,29
06/06/2018 04:00 17,68 54680,00 36,26 8,5 111,50 2,4 3,67
06/06/2018 08:00 17,95 54670,00 36,26 8,3 108,50 2,3 3,71
06/06/2018 12:00 17,69 54850,00 36,39 8,5 111,30 2,1 4,48
Total: 1.374